Time;durP1;ratioP1;P1;durP2;ratioP2;P2;SDS_P1;SDS_P2;PMS_P1;PMS_P2;Temp;Humidity;BMP_temperature;BMP_pressure;BME280_temperature;BME280_humidity;BME280_pressure;Samples;Min_cycle;Max_cycle;Signal;HPM_P1;HPM_P2
2023/11/18 00:00:20;;;;;;;3.15;2.00;;;;;;;20.19;42.14;102402.75;5060421;28;20124;-72
2023/11/18 00:02:46;;;;;;;2.58;2.30;;;;;;;20.14;42.01;102397.06;5060120;28;20041;-72
2023/11/18 00:05:13;;;;;;;2.63;2.22;;;;;;;20.18;42.07;102402.88;5056054;28;20508;-72
2023/11/18 00:07:39;;;;;;;2.70;2.28;;;;;;;20.17;42.21;102401.22;5060894;28;20036;-72
2023/11/18 00:10:06;;;;;;;2.78;2.30;;;;;;;20.16;42.21;102405.69;5054395;28;20062;-71
2023/11/18 00:12:35;;;;;;;2.58;2.30;;;;;;;20.05;42.22;102386.50;5054326;28;20098;-73
2023/11/18 00:15:04;;;;;;;2.47;2.28;;;;;;;20.06;42.12;102399.56;5050059;28;20557;-72
2023/11/18 00:17:30;;;;;;;3.00;2.38;;;;;;;20.14;42.22;102410.28;5053640;28;20029;-71
2023/11/18 00:19:56;;;;;;;2.60;2.40;;;;;;;20.12;42.19;102409.59;5057618;28;20634;-72
2023/11/18 00:22:21;;;;;;;2.58;2.00;;;;;;;20.12;41.95;102403.47;5060973;28;20040;-71
2023/11/18 00:24:47;;;;;;;2.13;1.92;;;;;;;20.10;42.25;102413.34;5062882;28;20052;-71
2023/11/18 00:27:15;;;;;;;3.08;2.65;;;;;;;20.09;42.19;102401.94;5065786;28;20052;-71
2023/11/18 00:29:41;;;;;;;2.53;2.30;;;;;;;20.07;42.28;102398.59;5065193;28;20438;-71
2023/11/18 00:32:07;;;;;;;3.53;2.40;;;;;;;20.08;42.02;102399.44;5064368;28;20439;-71
2023/11/18 00:34:35;;;;;;;2.85;2.40;;;;;;;20.03;42.19;102396.38;5064838;28;20036;-71
2023/11/18 00:37:01;;;;;;;3.03;2.50;;;;;;;20.04;42.09;102398.88;5055563;28;20536;-71
2023/11/18 00:39:27;;;;;;;2.50;2.30;;;;;;;20.05;41.90;102405.84;5064695;28;20036;-71
2023/11/18 00:41:53;;;;;;;2.28;2.08;;;;;;;20.02;42.21;102402.66;5069058;28;20538;-71
2023/11/18 00:44:18;;;;;;;3.33;2.10;;;;;;;19.98;42.16;102390.69;5056930;28;20440;-71
2023/11/18 00:46:44;;;;;;;2.67;2.15;;;;;;;19.98;42.11;102396.81;5059648;28;20183;-71
2023/11/18 00:49:11;;;;;;;2.95;2.30;;;;;;;20.03;42.16;102399.03;5064224;28;20040;-71
2023/11/18 00:51:37;;;;;;;3.22;2.33;;;;;;;19.92;42.05;102387.63;5068173;28;20113;-71
2023/11/18 00:54:05;;;;;;;3.05;2.30;;;;;;;20.01;42.18;102396.53;5061611;28;20501;-71
2023/11/18 00:56:31;;;;;;;3.40;2.50;;;;;;;20.00;42.19;102402.78;5064511;28;20447;-71
2023/11/18 00:58:58;;;;;;;3.03;2.40;;;;;;;19.96;42.02;102393.50;5058125;28;20029;-71
2023/11/18 01:01:24;;;;;;;3.42;2.40;;;;;;;19.90;42.14;102389.59;5058547;28;20032;-71
2023/11/18 01:03:49;;;;;;;2.78;2.40;;;;;;;19.96;42.17;102397.94;5065173;28;20045;-72
2023/11/18 01:06:17;;;;;;;3.22;2.55;;;;;;;19.97;42.06;102394.31;5064702;28;20041;-71
2023/11/18 01:08:44;;;;;;;2.78;2.17;;;;;;;19.92;41.93;102390.28;5062101;28;20044;-71
2023/11/18 01:11:10;;;;;;;2.50;2.17;;;;;;;19.99;41.96;102401.13;5062833;28;20383;-72
2023/11/18 01:13:35;;;;;;;3.38;2.38;;;;;;;20.03;42.16;102412.25;5065387;28;20039;-71
2023/11/18 01:16:01;;;;;;;3.05;2.30;;;;;;;19.92;42.08;102392.91;5063729;28;20043;-71
2023/11/18 01:18:27;;;;;;;2.53;2.00;;;;;;;20.03;42.13;102409.59;5063294;28;20036;-71
2023/11/18 01:20:53;;;;;;;3.50;2.72;;;;;;;20.02;42.18;102406.13;5065662;28;20036;-71
2023/11/18 01:23:19;;;;;;;3.45;2.30;;;;;;;19.96;42.21;102406.72;5058824;28;20591;-71
2023/11/18 01:25:45;;;;;;;2.40;2.20;;;;;;;20.01;42.10;102403.63;5065432;28;20119;-71
2023/11/18 01:28:11;;;;;;;3.10;2.47;;;;;;;19.92;42.37;102389.44;5066681;28;20719;-71
2023/11/18 01:30:37;;;;;;;2.97;2.20;;;;;;;20.00;42.19;102399.31;5063564;28;20033;-71
2023/11/18 01:33:03;;;;;;;3.50;2.45;;;;;;;19.98;42.47;102391.53;5067364;28;20171;-71
2023/11/18 01:35:31;;;;;;;2.33;2.13;;;;;;;20.00;42.28;102399.31;5063643;28;20487;-71
2023/11/18 01:37:57;;;;;;;4.28;2.40;;;;;;;19.91;42.20;102385.13;5063455;28;20546;-71
2023/11/18 01:40:23;;;;;;;2.88;2.50;;;;;;;19.98;42.33;102394.19;5065048;28;20041;-71
2023/11/18 01:42:49;;;;;;;3.10;2.38;;;;;;;19.97;42.27;102405.72;5080816;28;20040;-71
2023/11/18 01:45:19;;;;;;;2.58;2.30;;;;;;;19.75;42.31;102364.59;5063753;28;20040;-71
2023/11/18 01:47:48;;;;;;;2.85;2.40;;;;;;;19.85;42.32;102380.41;5062071;28;20044;-71
2023/11/18 01:50:14;;;;;;;2.63;2.35;;;;;;;19.94;42.22;102399.91;5062360;28;20041;-71
2023/11/18 01:52:41;;;;;;;3.10;2.50;;;;;;;19.78;42.18;102371.41;5061574;28;20645;-71
2023/11/18 01:55:07;;;;;;;2.50;2.15;;;;;;;19.91;42.28;102390.41;5057727;28;20090;-71
2023/11/18 01:57:34;;;;;;;2.80;2.25;;;;;;;19.90;42.28;102392.22;5064510;28;20509;-71
2023/11/18 02:00:05;;;;;;;3.38;2.60;;;;;;;19.92;42.18;102389.44;5063224;28;20028;-72
2023/11/18 02:02:39;;;;;;;3.15;2.58;;;;;;;19.96;42.25;102395.31;5062222;28;20646;-71
2023/11/18 02:05:06;;;;;;;2.20;2.05;;;;;;;19.84;42.23;102378.75;5060399;28;20040;-71
2023/11/18 02:07:35;;;;;;;3.10;2.30;;;;;;;19.87;42.24;102373.19;5062299;28;20467;-71
2023/11/18 02:10:02;;;;;;;3.25;2.38;;;;;;;19.64;42.19;102346.25;5062017;28;20054;-71
2023/11/18 02:13:24;;;;;;;3.33;2.42;;;;;;;19.86;42.10;102385.56;5062827;28;20044;-71
2023/11/18 02:15:57;;;;;;;2.92;2.33;;;;;;;19.88;42.23;102388.91;4961783;28;20057;-71
2023/11/18 02:18:26;;;;;;;3.40;2.53;;;;;;;19.91;42.20;102393.06;5007236;28;20044;-71
2023/11/18 02:20:57;;;;;;;;;;;;;;;19.91;42.23;102398.34;5066185;28;20522;-72
2023/11/18 02:23:24;;;;;;;3.28;2.60;;;;;;;19.90;42.25;102401.97;5058101;28;20390;-72
2023/11/18 02:25:49;;;;;;;2.80;2.50;;;;;;;19.87;42.28;102383.75;5062036;28;20148;-71
2023/11/18 02:28:15;;;;;;;3.33;2.50;;;;;;;19.85;42.25;102383.06;5061113;28;20108;-71
2023/11/18 02:30:42;;;;;;;2.45;2.25;;;;;;;19.87;42.30;102389.03;5061939;28;20047;-71
2023/11/18 02:33:14;;;;;;;2.85;2.40;;;;;;;19.86;42.19;102395.31;5077401;28;20466;-71
2023/11/18 02:35:53;;;;;;;3.35;2.40;;;;;;;19.81;42.05;102382.53;5059168;28;20043;-71
2023/11/18 02:38:24;;;;;;;3.47;2.40;;;;;;;19.86;42.23;102390.84;5056113;28;20032;-71
2023/11/18 02:40:53;;;;;;;2.92;2.40;;;;;;;19.83;42.22;102391.16;5058563;28;20049;-71
2023/11/18 02:43:19;;;;;;;3.38;2.60;;;;;;;19.75;42.26;102371.66;5057548;28;20446;-71
2023/11/18 02:45:46;;;;;;;3.33;2.50;;;;;;;19.80;41.92;102386.16;5062782;28;20036;-71
2023/11/18 02:48:14;;;;;;;3.42;2.60;;;;;;;19.76;42.37;102376.84;5065321;28;20079;-71
2023/11/18 02:50:41;;;;;;;2.45;2.05;;;;;;;19.63;42.21;102352.50;5063467;28;20047;-71
2023/11/18 02:53:09;;;;;;;2.58;2.38;;;;;;;19.81;42.24;102376.41;5056767;28;20068;-71
2023/11/18 02:55:35;;;;;;;2.67;2.33;;;;;;;19.78;42.24;102361.66;5059143;28;20084;-71
2023/11/18 02:58:02;;;;;;;2.47;2.28;;;;;;;19.79;42.59;102352.75;5057959;28;20360;-71
2023/11/18 03:00:28;;;;;;;3.30;2.50;;;;;;;19.82;42.30;102365.69;5062537;28;20069;-71
2023/11/18 03:02:55;;;;;;;2.63;2.20;;;;;;;19.82;42.24;102359.56;5064286;28;20036;-71
2023/11/18 03:05:21;;;;;;;3.00;2.42;;;;;;;19.81;42.19;102360.53;5062408;28;20086;-71
2023/11/18 03:07:50;;;;;;;2.47;2.20;;;;;;;19.75;42.17;102353.16;5063214;28;20045;-71
2023/11/18 03:10:22;;;;;;;2.55;2.35;;;;;;;19.84;42.07;102369.03;5050855;28;20045;-71
2023/11/18 03:12:48;;;;;;;2.47;2.20;;;;;;;19.85;42.24;102365.41;5060124;28;20041;-71
2023/11/18 03:15:16;;;;;;;3.25;2.47;;;;;;;19.86;42.12;102356.47;5060403;28;20031;-71
2023/11/18 03:17:50;;;;;;;2.75;2.13;;;;;;;19.80;42.27;102351.78;5074238;28;20226;-71
2023/11/18 03:20:16;;;;;;;3.25;2.47;;;;;;;19.83;42.08;102350.66;5057614;28;20048;-71
2023/11/18 03:22:51;;;;;;;2.60;2.40;;;;;;;19.82;42.30;102341.06;5051669;28;20059;-71
2023/11/18 03:25:19;;;;;;;3.03;2.40;;;;;;;19.85;42.22;102346.88;5068443;28;20036;-71
2023/11/18 03:27:44;;;;;;;3.67;2.50;;;;;;;19.85;42.22;102348.69;5061425;28;20087;-71
2023/11/18 03:30:10;;;;;;;2.97;2.50;;;;;;;19.84;42.26;102345.22;5066671;28;20695;-71
2023/11/18 03:32:38;;;;;;;2.92;2.40;;;;;;;19.84;42.16;102347.88;5061865;28;20038;-71
2023/11/18 03:35:08;;;;;;;2.50;2.30;;;;;;;19.75;42.28;102327.59;5057738;28;20114;-71
2023/11/18 03:37:35;;;;;;;3.40;2.20;;;;;;;19.82;42.44;102352.47;5057883;28;20554;-71
2023/11/18 03:40:01;;;;;;;2.70;2.40;;;;;;;19.77;42.26;102348.59;5063720;28;20075;-71
2023/11/18 03:42:28;;;;;;;2.85;2.40;;;;;;;19.69;42.27;102332.59;5068812;28;20060;-71
2023/11/18 03:44:54;;;;;;;3.17;2.67;;;;;;;19.67;42.12;102321.34;5068239;28;20039;-71
2023/11/18 03:47:23;;;;;;;2.63;2.35;;;;;;;19.76;42.21;102339.84;5066580;28;20049;-71
2023/11/18 03:49:50;;;;;;;3.13;2.47;;;;;;;19.81;42.25;102339.41;5066193;28;20712;-71
2023/11/18 03:52:16;;;;;;;3.05;2.50;;;;;;;19.80;42.29;102340.38;5066042;28;21241;-71
2023/11/18 03:54:41;;;;;;;2.97;2.42;;;;;;;19.82;42.23;102352.47;5063991;28;20051;-71
2023/11/18 03:57:07;;;;;;;3.65;2.63;;;;;;;19.81;42.16;102352.63;5058869;28;20037;-71
2023/11/18 03:59:33;;;;;;;2.90;2.60;;;;;;;19.80;42.17;102348.31;5057196;28;20036;-71
2023/11/18 04:01:59;;;;;;;3.33;2.42;;;;;;;19.77;42.10;102353.88;5054811;28;20036;-71
2023/11/18 04:04:24;;;;;;;2.95;2.30;;;;;;;19.71;42.19;102328.84;5059313;28;20616;-71
2023/11/18 04:06:50;;;;;;;3.38;2.63;;;;;;;19.77;42.12;102335.38;5063719;28;20822;-71
2023/11/18 04:09:16;;;;;;;3.10;2.38;;;;;;;19.78;42.10;102324.66;5063361;28;20048;-71
2023/11/18 04:11:44;;;;;;;2.90;2.60;;;;;;;19.80;42.08;102301.56;5059954;28;20041;-71
2023/11/18 04:14:10;;;;;;;3.10;2.55;;;;;;;19.83;42.12;102305.72;5061047;28;20040;-71
2023/11/18 04:16:37;;;;;;;2.85;2.50;;;;;;;19.85;42.10;102299.31;5061360;28;20098;-71
2023/11/18 04:19:03;;;;;;;2.65;2.30;;;;;;;19.84;42.14;102295.00;5068933;28;20024;-71
2023/11/18 04:21:29;;;;;;;3.33;2.60;;;;;;;19.85;42.05;102286.09;5062994;28;20032;-71
2023/11/18 04:23:55;;;;;;;3.45;2.95;;;;;;;19.84;42.19;102284.44;5063271;28;20040;-71
2023/11/18 04:26:20;;;;;;;3.33;2.55;;;;;;;19.79;42.18;102273.47;5065987;28;20036;-71
2023/11/18 04:28:46;;;;;;;3.30;2.70;;;;;;;19.81;42.16;102278.59;5066053;28;20205;-71
2023/11/18 04:31:12;;;;;;;3.38;2.70;;;;;;;19.79;42.17;102280.56;5063868;28;20039;-71
2023/11/18 04:33:37;;;;;;;2.75;2.40;;;;;;;19.82;42.19;102282.91;5050970;28;20073;-71
2023/11/18 04:36:05;;;;;;;3.22;2.50;;;;;;;19.75;42.09;102263.28;5080973;28;20036;-71
2023/11/18 04:38:31;;;;;;;2.85;2.55;;;;;;;19.81;42.16;102275.97;5067557;28;20074;-71
2023/11/18 04:40:57;;;;;;;2.78;2.28;;;;;;;19.80;42.18;102279.59;5064472;28;20040;-71
2023/11/18 04:43:23;;;;;;;2.58;2.38;;;;;;;19.79;42.10;102276.09;5063061;28;20083;-71
2023/11/18 04:45:49;;;;;;;4.38;2.67;;;;;;;19.76;42.04;102275.56;5068989;28;20635;-71
2023/11/18 04:48:15;;;;;;;3.03;2.67;;;;;;;19.71;42.14;102268.03;5063237;28;20111;-71
2023/11/18 04:50:43;;;;;;;2.58;2.38;;;;;;;19.78;42.26;102278.91;5061767;28;20048;-71
2023/11/18 04:53:10;;;;;;;2.92;2.63;;;;;;;19.78;42.20;102277.09;5074815;28;20036;-71
2023/11/18 04:55:37;;;;;;;3.05;2.50;;;;;;;19.69;42.13;102258.59;5069085;28;20624;-71
2023/11/18 04:58:02;;;;;;;3.03;2.60;;;;;;;19.73;42.22;102257.31;5055358;28;20931;-71
2023/11/18 05:00:28;;;;;;;2.83;2.53;;;;;;;19.65;42.07;102238.72;5061307;28;20059;-71
2023/11/18 05:02:54;;;;;;;3.35;2.47;;;;;;;19.74;42.14;102261.63;5063915;28;20040;-71
2023/11/18 05:05:21;;;;;;;3.13;2.30;;;;;;;19.75;42.08;102266.81;5063927;28;20044;-71
2023/11/18 05:07:47;;;;;;;3.15;2.85;;;;;;;19.71;42.08;102270.69;5066783;28;20040;-71
2023/11/18 05:10:12;;;;;;;3.38;2.83;;;;;;;19.76;42.16;102267.63;5061576;28;20036;-71
2023/11/18 05:12:39;;;;;;;2.83;2.50;;;;;;;19.80;41.99;102266.34;5067049;28;20040;-71
2023/11/18 05:15:07;;;;;;;2.72;2.40;;;;;;;19.88;41.95;102262.00;5061209;28;20063;-71
2023/11/18 05:17:37;;;;;;;3.17;2.88;;;;;;;19.87;41.75;102264.78;5064179;28;20568;-71
2023/11/18 05:20:04;;;;;;;3.15;2.65;;;;;;;19.86;41.87;102255.19;5067921;28;20036;-71
2023/11/18 05:22:29;;;;;;;3.22;2.35;;;;;;;19.90;41.98;102253.91;5074468;28;20579;-72
2023/11/18 05:24:55;;;;;;;2.80;2.50;;;;;;;19.87;42.07;102238.34;5071245;28;20036;-71
2023/11/18 05:27:20;;;;;;;3.00;2.60;;;;;;;19.90;42.00;102238.06;5064629;28;20041;-71
2023/11/18 05:29:48;;;;;;;3.08;2.45;;;;;;;19.93;42.01;102243.09;5058403;28;20040;-71
2023/11/18 05:32:14;;;;;;;2.85;2.53;;;;;;;19.79;42.08;102219.75;5066190;28;20041;-71
2023/11/18 05:34:39;;;;;;;2.70;2.45;;;;;;;19.92;42.02;102249.31;5059284;28;20154;-71
2023/11/18 05:37:05;;;;;;;3.28;2.70;;;;;;;19.88;42.16;102245.31;5061771;28;20036;-71
2023/11/18 05:39:31;;;;;;;2.92;2.50;;;;;;;19.76;42.15;102231.47;5059284;28;20041;-71
2023/11/18 05:41:59;;;;;;;2.50;2.30;;;;;;;19.86;42.16;102250.75;5063290;28;20028;-71
2023/11/18 05:44:30;;;;;;;2.53;2.33;;;;;;;19.85;42.06;102250.88;5062715;28;20101;-71
2023/11/18 05:46:57;;;;;;;2.78;2.58;;;;;;;19.84;42.12;102246.59;5068053;28;20044;-71
2023/11/18 05:49:24;;;;;;;4.78;2.80;;;;;;;19.84;42.22;102257.16;5061482;28;20749;-71
2023/11/18 05:51:50;;;;;;;3.67;2.85;;;;;;;19.83;42.20;102255.50;5064627;28;20041;-71
2023/11/18 05:54:15;;;;;;;3.17;2.60;;;;;;;19.81;42.11;102250.34;5055783;28;20068;-71
2023/11/18 05:56:41;;;;;;;3.47;2.85;;;;;;;19.80;42.06;102255.78;5057194;28;20079;-71
2023/11/18 05:59:08;;;;;;;2.90;2.38;;;;;;;19.77;42.17;102250.81;5058714;28;20074;-71
2023/11/18 06:01:34;;;;;;;2.80;2.45;;;;;;;19.77;42.21;102248.16;5063886;28;20052;-71
2023/11/18 06:04:00;;;;;;;3.40;2.70;;;;;;;19.79;42.05;102254.97;5058081;28;20043;-71
2023/11/18 06:06:26;;;;;;;2.40;2.20;;;;;;;19.79;42.10;102252.31;5063579;28;20060;-71
2023/11/18 06:08:53;;;;;;;3.05;2.55;;;;;;;19.77;42.19;102240.22;5068259;28;20052;-71
2023/11/18 06:11:19;;;;;;;2.75;2.30;;;;;;;19.71;42.08;102230.22;5064318;28;20111;-71
2023/11/18 06:13:47;;;;;;;2.92;2.38;;;;;;;19.77;42.14;102238.41;5071354;28;20047;-71
2023/11/18 06:16:14;;;;;;;2.88;2.50;;;;;;;19.77;42.12;102241.06;5069138;28;20378;-71
2023/11/18 06:18:41;;;;;;;2.72;2.50;;;;;;;19.72;42.23;102230.06;5066501;28;20973;-71
2023/11/18 06:21:08;;;;;;;3.20;2.78;;;;;;;19.74;42.05;102233.38;5067833;28;20050;-71
2023/11/18 06:23:34;;;;;;;3.05;2.60;;;;;;;19.73;42.21;102220.31;5061648;28;20032;-71
2023/11/18 06:26:00;;;;;;;3.55;2.58;;;;;;;19.76;42.11;102228.00;5072560;28;20545;-71
2023/11/18 06:28:28;;;;;;;2.83;2.35;;;;;;;19.75;42.13;102219.22;5063307;28;20044;-71
2023/11/18 06:30:53;;;;;;;2.97;2.55;;;;;;;19.72;42.09;102218.66;5072445;28;20066;-71
2023/11/18 06:33:22;;;;;;;2.85;2.55;;;;;;;19.72;42.17;102222.13;5061353;28;20036;-71
2023/11/18 06:35:48;;;;;;;3.40;2.70;;;;;;;19.69;41.97;102222.44;5068029;28;20048;-71
2023/11/18 06:38:15;;;;;;;2.88;2.53;;;;;;;19.70;42.29;102226.72;5051307;28;20032;-71
2023/11/18 06:40:40;;;;;;;3.28;2.63;;;;;;;19.70;42.11;102221.44;5065083;28;20603;-71
2023/11/18 06:43:10;;;;;;;3.00;2.60;;;;;;;19.66;42.08;102222.72;5067445;28;20131;-71
2023/11/18 06:45:37;;;;;;;;;;;;;;;19.70;42.23;102223.25;5066836;28;20390;-71
2023/11/18 06:48:05;;;;;;;3.67;3.08;;;;;;;19.58;42.13;102204.97;5063986;28;19926;-71
2023/11/18 06:50:31;;;;;;;3.55;3.15;;;;;;;19.69;42.12;102211.03;5063009;28;20045;-71
2023/11/18 06:52:58;;;;;;;3.45;2.95;;;;;;;19.70;42.17;102215.34;5067284;28;20036;-71
2023/11/18 06:55:26;;;;;;;3.28;2.72;;;;;;;19.57;42.04;102199.81;5052616;28;20079;-71
2023/11/18 06:57:52;;;;;;;2.70;2.50;;;;;;;19.68;42.21;102214.66;5065344;28;20029;-71
2023/11/18 07:00:18;;;;;;;3.20;2.63;;;;;;;19.63;42.26;102209.81;5061698;28;20039;-71
2023/11/18 07:02:44;;;;;;;2.92;2.63;;;;;;;19.65;42.18;102222.88;5061799;28;20147;-71
2023/11/18 07:05:09;;;;;;;3.20;2.90;;;;;;;19.68;42.22;102220.78;5069414;28;20052;-71
2023/11/18 07:07:37;;;;;;;3.53;2.70;;;;;;;19.66;42.21;102219.25;5062679;28;20052;-71
2023/11/18 07:10:04;;;;;;;3.55;2.97;;;;;;;19.68;42.21;102231.34;5061159;28;20127;-71
2023/11/18 07:12:33;;;;;;;3.72;2.95;;;;;;;19.51;42.04;102219.69;5063791;28;20652;-71
2023/11/18 07:15:00;;;;;;;3.28;2.97;;;;;;;19.70;42.16;102250.53;5065181;28;20049;-71
2023/11/18 07:17:26;;;;;;;3.90;3.13;;;;;;;19.66;42.02;102217.44;5068399;28;20125;-71
2023/11/18 07:19:51;;;;;;;3.13;2.75;;;;;;;20.32;41.11;102259.56;5058766;28;20033;-70
2023/11/18 07:22:17;;;;;;;2.97;2.67;;;;;;;21.03;40.34;102254.34;5047101;28;20070;-71
2023/11/18 07:24:43;;;;;;;3.17;2.58;;;;;;;21.37;39.24;102251.81;5062234;28;20047;-71
2023/11/18 07:27:11;;;;;;;4.30;2.80;;;;;;;21.31;39.62;102260.38;5062159;28;20056;-71
2023/11/18 07:29:37;;;;;;;3.15;2.78;;;;;;;21.18;39.95;102251.94;5064957;28;20170;-71
2023/11/18 07:32:05;;;;;;;3.72;2.90;;;;;;;21.02;40.23;102246.56;5070142;28;20152;-71
2023/11/18 07:34:33;;;;;;;2.95;2.63;;;;;;;20.73;40.48;102231.72;5061670;28;20548;-70
2023/11/18 07:36:59;;;;;;;3.45;3.00;;;;;;;20.57;40.99;102226.28;5063020;28;20128;-71
2023/11/18 07:39:43;;;;;;;3.38;2.58;;;;;;;20.59;41.06;102226.13;5062553;28;20047;-71
2023/11/18 07:42:11;;;;;;;3.88;2.72;;;;;;;20.46;41.35;102222.03;5061168;28;20036;-71
2023/11/18 07:44:38;;;;;;;4.03;2.95;;;;;;;20.41;41.64;102231.41;5064164;28;20046;-71
2023/11/18 07:47:05;;;;;;;4.10;3.10;;;;;;;20.38;41.52;102229.88;5062610;28;20083;-71
2023/11/18 07:49:31;;;;;;;4.68;3.00;;;;;;;20.36;41.75;102234.47;5059107;28;20047;-71
2023/11/18 07:51:57;;;;;;;3.75;3.28;;;;;;;20.33;41.69;102228.66;5066891;28;20292;-70
2023/11/18 07:54:23;;;;;;;4.00;3.10;;;;;;;20.32;41.81;102227.81;5060805;28;20494;-71
2023/11/18 07:56:53;;;;;;;4.35;3.30;;;;;;;20.29;41.71;102230.78;5060351;28;20052;-70
2023/11/18 07:59:18;;;;;;;4.10;3.25;;;;;;;20.27;41.76;102229.22;5068026;28;20575;-71
2023/11/18 08:01:46;;;;;;;4.35;3.28;;;;;;;20.26;42.01;102231.06;5067776;28;20035;-71
2023/11/18 08:04:15;;;;;;;3.60;2.95;;;;;;;20.25;41.79;102234.69;5059355;28;20098;-71
2023/11/18 08:06:42;;;;;;;4.07;3.25;;;;;;;20.26;41.79;102231.06;5065733;28;20113;-71
2023/11/18 08:09:13;;;;;;;4.32;3.20;;;;;;;20.44;41.35;102239.88;5065097;28;20068;-71
2023/11/18 08:11:41;;;;;;;4.68;3.20;;;;;;;20.76;41.12;102233.25;5066076;28;20119;-71
2023/11/18 08:14:10;;;;;;;4.00;3.08;;;;;;;20.74;40.77;102225.44;5072340;28;20066;-71
2023/11/18 08:16:35;;;;;;;3.88;3.05;;;;;;;20.68;40.83;102223.44;5063381;28;21408;-71
2023/11/18 08:19:07;;;;;;;4.05;3.10;;;;;;;20.66;41.25;102238.63;5069196;28;20077;-71
2023/11/18 08:21:34;;;;;;;4.18;3.03;;;;;;;20.39;41.41;102196.31;5060933;28;20037;-71
2023/11/18 08:24:00;;;;;;;4.07;3.40;;;;;;;20.56;41.49;102232.56;5063408;28;20040;-71
2023/11/18 08:26:26;;;;;;;4.82;3.70;;;;;;;20.50;41.57;102225.22;5065978;28;20040;-71
2023/11/18 08:28:51;;;;;;;5.32;3.80;;;;;;;20.49;41.53;102226.22;5057932;28;20060;-71
2023/11/18 08:31:17;;;;;;;5.03;3.47;;;;;;;20.45;41.81;102228.31;5056178;28;22306;-70
2023/11/18 08:33:43;;;;;;;3.90;2.95;;;;;;;20.38;41.52;102203.41;5067733;28;20048;-71
2023/11/18 08:36:09;;;;;;;4.60;3.72;;;;;;;20.43;41.62;102213.56;5061680;28;20142;-71
2023/11/18 08:38:35;;;;;;;5.13;3.53;;;;;;;20.35;41.71;102198.44;5062528;28;20090;-71
2023/11/18 08:41:01;;;;;;;4.65;3.80;;;;;;;20.32;41.80;102180.22;5063287;28;20109;-71
2023/11/18 08:43:28;;;;;;;4.75;3.40;;;;;;;20.33;41.81;102181.88;5059718;28;20037;-71
2023/11/18 08:45:56;;;;;;;4.05;3.50;;;;;;;20.32;41.92;102188.16;5062012;28;20098;-71
2023/11/18 08:48:22;;;;;;;4.35;3.13;;;;;;;20.27;41.83;102174.50;5062664;28;20051;-71
2023/11/18 08:50:49;;;;;;;4.95;3.80;;;;;;;20.28;41.83;102175.34;5061012;28;20121;-71
2023/11/18 08:53:17;;;;;;;5.80;4.10;;;;;;;20.29;41.93;102158.50;5061484;28;20040;-72
2023/11/18 08:55:56;;;;;;;5.15;3.72;;;;;;;20.13;41.95;102132.75;5058186;28;20539;-72
2023/11/18 08:58:22;;;;;;;4.90;3.75;;;;;;;20.23;41.94;102144.91;5067096;28;20039;-72
2023/11/18 09:01:04;;;;;;;5.40;3.70;;;;;;;20.23;41.90;102144.91;5060348;28;20048;-71
2023/11/18 09:03:35;;;;;;;5.32;3.88;;;;;;;20.22;41.98;102140.59;5060037;28;20051;-72
2023/11/18 09:06:15;;;;;;;5.05;3.75;;;;;;;20.22;41.90;102129.19;5061997;28;20085;-71
2023/11/18 09:08:42;;;;;;;5.15;3.90;;;;;;;20.29;41.64;102118.81;5060249;28;20109;-72
2023/11/18 09:11:14;;;;;;;4.80;3.75;;;;;;;20.40;41.49;102124.72;5059416;28;20090;-72
2023/11/18 09:13:42;;;;;;;5.53;3.70;;;;;;;20.42;41.52;102120.13;5058219;28;20044;-72
2023/11/18 09:16:09;;;;;;;7.35;4.18;;;;;;;20.47;41.49;102120.53;5059367;28;20156;-72
2023/11/18 09:18:36;;;;;;;7.07;4.63;;;;;;;20.38;41.69;102102.03;5062567;28;20123;-72
2023/11/18 09:21:05;;;;;;;5.18;3.90;;;;;;;20.45;41.63;102106.59;5057781;28;20033;-72
2023/11/18 09:23:37;;;;;;;4.50;3.70;;;;;;;20.44;41.81;102106.75;5060389;28;20040;-72
2023/11/18 09:26:10;;;;;;;6.18;4.25;;;;;;;20.38;41.56;102104.69;5061293;28;20562;-72
2023/11/18 09:28:36;;;;;;;4.95;3.80;;;;;;;20.44;41.68;102126.09;5061372;28;20048;-72
2023/11/18 09:31:03;;;;;;;5.38;4.25;;;;;;;20.47;41.62;102123.19;5070310;28;20781;-72
2023/11/18 09:33:34;;;;;;;4.65;4.07;;;;;;;20.41;41.64;102122.94;5064689;28;20141;-71
2023/11/18 09:36:07;;;;;;;6.03;4.50;;;;;;;20.49;41.56;102120.38;5058854;28;20044;-71
2023/11/18 09:38:35;;;;;;;4.95;4.03;;;;;;;20.37;41.79;102103.88;5060908;28;20037;-72
2023/11/18 09:41:03;;;;;;;5.40;4.00;;;;;;;20.45;41.48;102114.53;5056637;28;20494;-72
2023/11/18 09:43:32;;;;;;;5.82;4.18;;;;;;;20.42;41.84;102114.00;5058468;28;20118;-72
2023/11/18 09:46:14;;;;;;;6.03;4.28;;;;;;;20.36;41.61;102115.44;5063524;28;20044;-71
2023/11/18 09:48:46;;;;;;;7.03;4.32;;;;;;;20.47;41.81;102122.34;5059867;28;20041;-70
2023/11/18 09:51:16;;;;;;;6.68;4.32;;;;;;;20.41;41.76;102102.59;5060855;28;20045;-69
2023/11/18 09:53:46;;;;;;;5.53;4.13;;;;;;;20.51;41.65;102106.00;5059356;28;20126;-68
2023/11/18 09:56:26;;;;;;;5.88;4.30;;;;;;;20.44;41.84;102096.16;5057853;28;20036;-68
2023/11/18 09:59:05;;;;;;;6.15;4.05;;;;;;;20.50;41.66;102093.75;5057505;28;20396;-68
2023/11/18 10:01:37;;;;;;;5.03;4.30;;;;;;;20.36;41.89;102070.47;5055915;28;20615;-73
2023/11/18 10:04:06;;;;;;;4.95;4.03;;;;;;;20.43;41.84;102070.69;5058045;28;20055;-74
2023/11/18 10:06:35;;;;;;;6.47;4.60;;;;;;;20.41;41.96;102064.72;5058761;28;20082;-71
2023/11/18 10:09:15;;;;;;;7.03;4.55;;;;;;;20.25;41.97;102043.41;5061408;28;20246;-71
2023/11/18 10:11:46;;;;;;;6.03;4.40;;;;;;;20.42;41.89;102085.75;5058969;28;20036;-71
2023/11/18 10:14:15;;;;;;;7.30;4.57;;;;;;;20.20;41.91;102047.34;5064889;28;20032;-71
2023/11/18 10:16:45;;;;;;;6.27;4.57;;;;;;;20.37;41.93;102076.56;5058279;28;20937;-72
2023/11/18 10:19:12;;;;;;;7.03;4.47;;;;;;;20.38;42.07;102070.28;5059961;28;20431;-72
2023/11/18 10:21:40;;;;;;;5.60;3.95;;;;;;;20.31;41.97;102058.69;5056712;28;20047;-71
2023/11/18 10:24:19;;;;;;;5.60;4.03;;;;;;;20.38;41.86;102060.53;5059627;28;20048;-71
2023/11/18 10:26:55;;;;;;;7.57;4.75;;;;;;;20.41;41.64;102062.09;5054636;28;20071;-71
2023/11/18 10:29:20;;;;;;;5.85;4.20;;;;;;;20.50;41.53;102061.19;5063004;28;20048;-72
2023/11/18 10:31:46;;;;;;;7.22;4.75;;;;;;;20.57;41.49;102059.56;5059628;28;20036;-71
2023/11/18 10:34:18;;;;;;;8.05;5.50;;;;;;;20.51;41.65;102045.13;5060211;28;20506;-70
2023/11/18 10:37:02;;;;;;;7.10;4.97;;;;;;;20.52;41.57;102027.44;5055386;28;20036;-70
2023/11/18 10:39:31;;;;;;;7.35;5.13;;;;;;;20.57;41.61;102037.56;5057088;28;20036;-72
2023/11/18 10:42:00;;;;;;;8.05;5.25;;;;;;;20.46;41.69;102017.47;5050067;28;20044;-72
2023/11/18 10:44:26;;;;;;;5.60;4.90;;;;;;;20.50;41.61;102034.72;5053972;28;20135;-71
2023/11/18 10:46:53;;;;;;;6.93;5.03;;;;;;;20.48;41.75;102034.88;5059717;28;20131;-70
2023/11/18 10:49:20;;;;;;;6.93;5.22;;;;;;;20.43;41.93;102009.84;5056194;28;20041;-70
2023/11/18 10:51:47;;;;;;;7.38;5.20;;;;;;;20.43;41.74;102017.78;5058413;28;20055;-70
2023/11/18 10:54:19;;;;;;;7.28;5.00;;;;;;;20.42;41.84;102018.75;5053244;28;20123;-71
2023/11/18 10:56:49;;;;;;;7.47;5.28;;;;;;;20.42;41.84;102016.94;5050005;28;20487;-72
2023/11/18 10:59:16;;;;;;;6.55;5.28;;;;;;;20.40;41.98;102026.81;5058667;28;20060;-70
2023/11/18 11:01:42;;;;;;;7.95;5.35;;;;;;;20.39;41.87;102017.22;5061321;28;20097;-71
2023/11/18 11:04:12;;;;;;;7.15;5.13;;;;;;;20.40;41.84;102004.84;5060357;28;20418;-70
2023/11/18 11:06:46;;;;;;;8.43;5.10;;;;;;;20.48;41.42;102002.28;5056488;28;20328;-71
2023/11/18 11:09:16;;;;;;;6.80;5.32;;;;;;;20.51;41.52;101973.69;5063426;28;20400;-70
2023/11/18 11:12:14;;;;;;;7.20;5.38;;;;;;;20.78;40.93;101967.38;5056518;28;20032;-70
2023/11/18 11:14:50;;;;;;;8.30;5.93;;;;;;;20.86;40.88;101984.31;5058224;28;20041;-70
2023/11/18 11:17:27;;;;;;;8.10;5.20;;;;;;;20.81;41.07;101977.63;5057190;28;20033;-71
2023/11/18 11:19:56;;;;;;;7.28;5.47;;;;;;;20.78;41.26;101975.31;5053961;28;20629;-70
2023/11/18 11:22:24;;;;;;;;;;;;;;;20.73;41.15;101976.78;5063722;28;20028;-71
2023/11/18 11:25:02;;;;;;;8.35;6.28;;;;;;;20.67;41.46;101962.38;5062982;28;19979;-70
2023/11/18 11:27:39;;;;;;;7.00;5.18;;;;;;;20.63;41.53;101968.94;5060228;28;20089;-70
2023/11/18 11:30:22;;;;;;;8.45;5.70;;;;;;;20.63;41.35;101955.72;5064628;28;20036;-70